Time;durP1;ratioP1;P1;durP2;ratioP2;P2;SDS_P1;SDS_P2;PMS_P1;PMS_P2;Temp;Humidity;BMP_temperature;BMP_pressure;BME280_temperature;BME280_humidity;BME280_pressure;Samples;Min_cycle;Max_cycle;Signal;HPM_P1;HPM_P2
2021/09/16 00:01:29;;;;;;;;;;;25.00;55.20;;;;;;1550783;75;1188;-69
2021/09/16 00:03:31;;;;;;;;;;;25.00;55.20;;;;;;1549506;75;708;-70
2021/09/16 00:05:33;;;;;;;;;;;25.00;55.10;;;;;;1546017;76;697;-69
2021/09/16 00:07:34;;;;;;;;;;;25.00;55.20;;;;;;1549310;76;735;-70
2021/09/16 00:09:36;;;;;;;;;;;25.00;55.20;;;;;;1548080;75;723;-73
2021/09/16 00:11:38;;;;;;;;;;;25.00;55.10;;;;;;1553507;76;1943;-69
2021/09/16 00:13:40;;;;;;;;;;;24.90;55.20;;;;;;1548212;75;731;-70
2021/09/16 00:15:42;;;;;;;;;;;25.00;55.10;;;;;;1546611;76;691;-69
2021/09/16 00:17:44;;;;;;;;;;;24.90;55.20;;;;;;1551955;75;726;-70
2021/09/16 00:19:46;;;;;;;;;;;25.00;55.10;;;;;;1565469;75;706;-70
2021/09/16 00:21:48;;;;;;;;;;;25.00;55.10;;;;;;1545579;75;1148;-69
2021/09/16 00:23:49;;;;;;;;;;;25.00;55.10;;;;;;1553276;75;783;-71
2021/09/16 00:25:51;;;;;;;;;;;25.00;55.10;;;;;;1559699;75;693;-72
2021/09/16 00:27:53;;;;;;;;;;;25.00;55.20;;;;;;1556946;75;703;-68
2021/09/16 00:29:55;;;;;;;;;;;25.00;55.20;;;;;;1544473;75;734;-69
2021/09/16 00:31:57;;;;;;;;;;;25.00;55.20;;;;;;1545081;74;1933;-71
2021/09/16 00:33:59;;;;;;;;;;;25.00;55.20;;;;;;1549226;76;724;-69
2021/09/16 00:36:01;;;;;;;;;;;25.00;55.10;;;;;;1551941;76;713;-70
2021/09/16 00:38:03;;;;;;;;;;;25.00;55.00;;;;;;1555503;76;716;-69
2021/09/16 00:40:05;;;;;;;;;;;25.00;55.00;;;;;;1560025;75;693;-73
2021/09/16 00:42:07;;;;;;;;;;;25.00;54.80;;;;;;1551808;75;1145;-71
2021/09/16 00:44:09;;;;;;;;;;;25.00;54.70;;;;;;1559918;75;639;-73
2021/09/16 00:46:11;;;;;;;;;;;25.00;54.70;;;;;;1556183;76;719;-73
2021/09/16 00:48:13;;;;;;;;;;;25.00;54.70;;;;;;1542033;75;748;-71
2021/09/16 00:50:15;;;;;;;;;;;25.00;54.50;;;;;;1546544;75;780;-71
2021/09/16 00:52:17;;;;;;;;;;;25.00;55.00;;;;;;1540837;75;1943;-72
2021/09/16 00:54:19;;;;;;;;;;;24.90;55.20;;;;;;1540470;76;798;-70
2021/09/16 00:56:21;;;;;;;;;;;25.00;55.20;;;;;;1540116;76;726;-70
2021/09/16 00:58:24;;;;;;;;;;;25.00;55.20;;;;;;1539905;76;727;-70
2021/09/16 01:00:26;;;;;;;;;;;24.90;55.20;;;;;;1543916;75;1223;-71
2021/09/16 01:02:27;;;;;;;;;;;25.00;55.20;;;;;;1540251;76;752;-69
2021/09/16 01:04:30;;;;;;;;;;;25.00;55.30;;;;;;1539770;76;736;-71
2021/09/16 01:06:31;;;;;;;;;;;25.00;55.40;;;;;;1540101;76;778;-70
2021/09/16 01:08:34;;;;;;;;;;;25.00;55.30;;;;;;1542672;75;695;-70
2021/09/16 01:10:36;;;;;;;;;;;25.00;55.40;;;;;;1539759;76;1182;-70
2021/09/16 01:12:38;;;;;;;;;;;25.00;55.50;;;;;;1511550;77;1945;-73
2021/09/16 01:14:40;;;;;;;;;;;24.90;55.50;;;;;;1540129;76;710;-72
2021/09/16 01:16:41;;;;;;;;;;;24.90;55.50;;;;;;1540037;76;774;-71
2021/09/16 01:18:43;;;;;;;;;;;25.00;55.60;;;;;;1542372;75;712;-72
2021/09/16 01:20:45;;;;;;;;;;;25.00;55.50;;;;;;1548673;70;2105;-66
2021/09/16 01:22:47;;;;;;;;;;;25.00;55.50;;;;;;1633046;71;694;-70
2021/09/16 01:24:49;;;;;;;;;;;25.00;55.50;;;;;;1633896;71;732;-68
2021/09/16 01:26:51;;;;;;;;;;;25.00;55.60;;;;;;1633787;71;755;-71
2021/09/16 01:28:53;;;;;;;;;;;25.00;55.60;;;;;;1633317;71;745;-69
2021/09/16 01:30:55;;;;;;;;;;;25.00;55.60;;;;;;1633176;71;1205;-68
2021/09/16 01:32:57;;;;;;;;;;;25.00;55.60;;;;;;1628259;72;1937;-69
2021/09/16 01:34:59;;;;;;;;;;;25.00;55.50;;;;;;1633292;71;703;-67
2021/09/16 01:37:01;;;;;;;;;;;25.00;55.60;;;;;;1630267;71;745;-68
2021/09/16 01:39:04;;;;;;;;;;;25.00;55.70;;;;;;1632896;71;631;-68
2021/09/16 01:41:05;;;;;;;;;;;25.10;55.70;;;;;;1633201;71;1105;-67
2021/09/16 01:43:07;;;;;;;;;;;25.00;55.80;;;;;;1624651;72;715;-67
2021/09/16 01:45:11;;;;;;;;;;;25.00;55.80;;;;;;1629451;72;705;-67
2021/09/16 01:47:13;;;;;;;;;;;25.00;55.80;;;;;;1634257;72;1804;-67
2021/09/16 01:49:15;;;;;;;;;;;25.00;55.70;;;;;;1637962;71;774;-68
2021/09/16 01:51:17;;;;;;;;;;;25.00;55.80;;;;;;1634282;70;1150;-67
2021/09/16 01:53:18;;;;;;;;;;;25.00;55.80;;;;;;1642340;72;1933;-64
2021/09/16 01:55:21;;;;;;;;;;;25.00;55.90;;;;;;1623725;72;768;-67
2021/09/16 01:57:23;;;;;;;;;;;25.00;55.80;;;;;;1634079;71;753;-67
2021/09/16 01:59:24;;;;;;;;;;;25.00;55.90;;;;;;1632980;71;795;-67
2021/09/16 02:01:26;;;;;;;;;;;25.00;55.80;;;;;;1633262;71;1124;-67
2021/09/16 02:03:28;;;;;;;;;;;25.00;55.70;;;;;;1631073;71;805;-67
2021/09/16 02:05:30;;;;;;;;;;;25.00;55.70;;;;;;1628881;71;775;-67
2021/09/16 02:07:32;;;;;;;;;;;25.00;55.80;;;;;;1627852;71;699;-67
2021/09/16 02:09:34;;;;;;;;;;;25.00;55.70;;;;;;1637048;71;753;-69
2021/09/16 02:11:36;;;;;;;;;;;25.00;55.80;;;;;;1633135;71;1160;-68
2021/09/16 02:13:37;;;;;;;;;;;25.00;55.70;;;;;;1642305;71;1947;-67
2021/09/16 02:15:39;;;;;;;;;;;25.00;55.80;;;;;;1635985;71;776;-67
2021/09/16 02:17:41;;;;;;;;;;;25.00;55.80;;;;;;1632683;71;703;-68
2021/09/16 02:19:43;;;;;;;;;;;25.00;55.80;;;;;;1632861;70;722;-68
2021/09/16 02:21:45;;;;;;;;;;;25.00;55.70;;;;;;1633007;71;1151;-66
2021/09/16 02:23:47;;;;;;;;;;;25.00;55.80;;;;;;1630641;71;695;-68
2021/09/16 02:25:49;;;;;;;;;;;25.00;55.90;;;;;;1634813;71;803;-69
2021/09/16 02:27:51;;;;;;;;;;;25.00;55.80;;;;;;1639003;71;616;-69
2021/09/16 02:29:53;;;;;;;;;;;25.00;55.80;;;;;;1640245;71;730;-70
2021/09/16 02:31:54;;;;;;;;;;;25.00;55.80;;;;;;1632949;71;1144;-69
2021/09/16 02:33:56;;;;;;;;;;;25.00;55.80;;;;;;1631485;71;1905;-69
2021/09/16 02:35:59;;;;;;;;;;;25.00;55.70;;;;;;1633248;71;702;-68
2021/09/16 02:38:01;;;;;;;;;;;25.00;55.70;;;;;;1636689;71;734;-69
2021/09/16 02:40:02;;;;;;;;;;;25.00;55.80;;;;;;1632758;71;787;-67
2021/09/16 02:42:04;;;;;;;;;;;25.00;55.80;;;;;;1632006;71;1145;-68
2021/09/16 02:44:06;;;;;;;;;;;25.00;55.80;;;;;;1632602;71;688;-67
2021/09/16 02:46:08;;;;;;;;;;;24.90;55.80;;;;;;1640363;71;815;-69
2021/09/16 02:48:10;;;;;;;;;;;25.00;55.80;;;;;;1632824;71;798;-69
2021/09/16 02:50:12;;;;;;;;;;;25.00;55.80;;;;;;1633039;71;709;-67
2021/09/16 02:52:14;;;;;;;;;;;25.00;55.80;;;;;;1630058;71;1154;-66
2021/09/16 02:54:16;;;;;;;;;;;25.00;55.80;;;;;;1631127;71;1924;-66
2021/09/16 02:56:18;;;;;;;;;;;24.90;55.80;;;;;;1632829;71;811;-66
2021/09/16 02:58:20;;;;;;;;;;;24.90;55.70;;;;;;1631760;71;786;-66
2021/09/16 03:00:22;;;;;;;;;;;25.00;55.70;;;;;;1633814;71;879;-69
2021/09/16 03:02:23;;;;;;;;;;;25.00;55.70;;;;;;1629471;71;1089;-65
2021/09/16 03:04:25;;;;;;;;;;;24.90;55.70;;;;;;1632913;71;702;-65
2021/09/16 03:06:27;;;;;;;;;;;24.90;55.70;;;;;;1634794;71;784;-67
2021/09/16 03:08:29;;;;;;;;;;;25.00;55.70;;;;;;1636567;71;756;-65
2021/09/16 03:10:31;;;;;;;;;;;25.00;55.70;;;;;;1632876;71;747;-66
2021/09/16 03:12:33;;;;;;;;;;;25.00;55.70;;;;;;1630433;71;1933;-67
2021/09/16 03:14:35;;;;;;;;;;;24.90;55.70;;;;;;1633889;71;803;-72
2021/09/16 03:16:37;;;;;;;;;;;25.00;55.70;;;;;;1638397;71;810;-68
2021/09/16 03:18:38;;;;;;;;;;;24.90;55.70;;;;;;1638989;71;769;-68
2021/09/16 03:20:40;;;;;;;;;;;25.00;55.70;;;;;;1621088;71;1255;-69
2021/09/16 03:22:42;;;;;;;;;;;24.90;55.80;;;;;;1635718;72;782;-70
2021/09/16 03:24:44;;;;;;;;;;;25.00;55.70;;;;;;1636173;72;843;-67
2021/09/16 03:26:46;;;;;;;;;;;25.00;55.70;;;;;;1634241;72;733;-67
2021/09/16 03:28:48;;;;;;;;;;;25.00;55.80;;;;;;1640919;72;794;-67
2021/09/16 03:30:50;;;;;;;;;;;24.90;55.70;;;;;;1634815;72;1106;-67
2021/09/16 03:32:52;;;;;;;;;;;25.00;55.80;;;;;;1637178;72;1958;-67
2021/09/16 03:34:53;;;;;;;;;;;25.00;55.80;;;;;;1636752;71;732;-67
2021/09/16 03:36:55;;;;;;;;;;;25.00;55.80;;;;;;1639107;72;706;-68
2021/09/16 03:38:58;;;;;;;;;;;24.90;55.80;;;;;;1634887;72;720;-67
2021/09/16 03:41:00;;;;;;;;;;;24.90;55.70;;;;;;1634590;71;1155;-68
2021/09/16 03:43:02;;;;;;;;;;;24.90;55.90;;;;;;1640942;72;757;-69
2021/09/16 03:45:04;;;;;;;;;;;25.00;55.80;;;;;;1635020;72;773;-70
2021/09/16 03:47:06;;;;;;;;;;;24.90;55.80;;;;;;1634481;71;580;-68
2021/09/16 03:49:08;;;;;;;;;;;24.90;55.80;;;;;;1629346;71;963;-69
2021/09/16 03:51:10;;;;;;;;;;;24.90;55.80;;;;;;1635095;72;1195;-68
2021/09/16 03:53:12;;;;;;;;;;;25.00;55.80;;;;;;1632684;72;1931;-68
2021/09/16 03:55:13;;;;;;;;;;;24.90;55.70;;;;;;1637026;72;756;-69
2021/09/16 03:57:15;;;;;;;;;;;24.90;55.80;;;;;;1624014;72;771;-69
2021/09/16 03:59:17;;;;;;;;;;;25.00;55.70;;;;;;1644694;72;783;-69
2021/09/16 04:01:19;;;;;;;;;;;24.90;55.80;;;;;;1641651;71;1159;-68
2021/09/16 04:03:21;;;;;;;;;;;24.90;55.80;;;;;;1635485;72;738;-70
2021/09/16 04:05:23;;;;;;;;;;;25.00;55.70;;;;;;1634748;72;803;-67
2021/09/16 04:07:25;;;;;;;;;;;25.00;55.70;;;;;;1626965;71;734;-68
2021/09/16 04:09:26;;;;;;;;;;;25.00;55.70;;;;;;1644422;71;923;-68
2021/09/16 04:11:28;;;;;;;;;;;24.90;55.70;;;;;;1633889;71;1166;-68
2021/09/16 04:13:30;;;;;;;;;;;25.00;55.80;;;;;;1633260;72;1929;-70
2021/09/16 04:15:32;;;;;;;;;;;24.90;55.70;;;;;;1626024;72;802;-69
2021/09/16 04:17:34;;;;;;;;;;;25.00;55.90;;;;;;1629564;71;853;-70
2021/09/16 04:19:36;;;;;;;;;;;24.90;55.90;;;;;;1639716;72;737;-69
2021/09/16 04:21:38;;;;;;;;;;;24.90;56.00;;;;;;1635732;71;1144;-69
2021/09/16 04:23:40;;;;;;;;;;;24.90;56.00;;;;;;1631323;71;799;-69
2021/09/16 04:25:41;;;;;;;;;;;24.90;55.90;;;;;;1630511;71;818;-69
2021/09/16 04:27:43;;;;;;;;;;;25.00;56.00;;;;;;1632408;72;758;-69
2021/09/16 04:29:45;;;;;;;;;;;24.90;56.10;;;;;;1632834;72;702;-69
2021/09/16 04:31:47;;;;;;;;;;;24.90;56.10;;;;;;1633012;71;1152;-69
2021/09/16 04:33:49;;;;;;;;;;;25.00;56.10;;;;;;1634726;71;1933;-71
2021/09/16 04:35:51;;;;;;;;;;;24.90;56.00;;;;;;1621500;71;793;-70
2021/09/16 04:37:53;;;;;;;;;;;25.00;56.00;;;;;;1641553;71;686;-70
2021/09/16 04:39:55;;;;;;;;;;;25.00;56.10;;;;;;1639586;71;763;-67
2021/09/16 04:41:56;;;;;;;;;;;25.00;56.20;;;;;;1632508;71;1167;-66
2021/09/16 04:43:58;;;;;;;;;;;25.00;56.00;;;;;;1624175;72;846;-65
2021/09/16 04:46:00;;;;;;;;;;;25.00;55.60;;;;;;1633814;71;740;-65
2021/09/16 04:48:02;;;;;;;;;;;25.00;55.50;;;;;;1634825;71;689;-65
2021/09/16 04:50:04;;;;;;;;;;;25.00;55.50;;;;;;1630034;72;746;-67
2021/09/16 04:52:06;;;;;;;;;;;24.90;55.00;;;;;;1635714;72;1204;-67
2021/09/16 04:54:08;;;;;;;;;;;24.90;54.70;;;;;;1635842;72;1908;-67
2021/09/16 04:56:10;;;;;;;;;;;25.00;54.60;;;;;;1633968;72;785;-67
2021/09/16 04:58:12;;;;;;;;;;;24.90;54.50;;;;;;1632672;72;759;-65
2021/09/16 05:00:14;;;;;;;;;;;24.90;54.40;;;;;;1633414;72;718;-65
2021/09/16 05:02:16;;;;;;;;;;;24.80;54.20;;;;;;1623536;72;1149;-65
2021/09/16 05:04:18;;;;;;;;;;;24.90;54.30;;;;;;1634330;72;753;-66
2021/09/16 05:06:20;;;;;;;;;;;24.80;54.20;;;;;;1632624;72;725;-66
2021/09/16 05:08:22;;;;;;;;;;;24.80;54.20;;;;;;1627268;71;709;-68
2021/09/16 05:10:24;;;;;;;;;;;24.80;54.20;;;;;;1634921;71;608;-66
2021/09/16 05:12:25;;;;;;;;;;;24.80;54.30;;;;;;1627990;71;1105;-68
2021/09/16 05:14:27;;;;;;;;;;;24.80;54.40;;;;;;1638824;71;1928;-67
2021/09/16 05:16:29;;;;;;;;;;;24.80;54.40;;;;;;1645324;71;724;-66
2021/09/16 05:18:31;;;;;;;;;;;24.80;54.70;;;;;;1641719;71;715;-65
2021/09/16 05:20:33;;;;;;;;;;;24.70;54.70;;;;;;1634890;71;750;-69
2021/09/16 05:22:35;;;;;;;;;;;24.70;54.60;;;;;;1627984;71;1111;-66
2021/09/16 05:24:37;;;;;;;;;;;24.80;54.60;;;;;;1634273;71;782;-66
2021/09/16 05:26:39;;;;;;;;;;;24.80;54.60;;;;;;1634559;71;706;-66
2021/09/16 05:28:43;;;;;;;;;;;24.70;54.60;;;;;;1637670;71;1074;-67
2021/09/16 05:30:44;;;;;;;;;;;24.70;54.80;;;;;;1631443;71;1704;-68
2021/09/16 05:32:46;;;;;;;;;;;24.70;54.80;;;;;;1631730;72;798;-69
2021/09/16 05:34:48;;;;;;;;;;;24.70;54.90;;;;;;1632484;72;1923;-68
2021/09/16 05:36:50;;;;;;;;;;;24.70;54.80;;;;;;1634757;72;767;-68
2021/09/16 05:38:52;;;;;;;;;;;24.70;54.80;;;;;;1632395;72;710;-68
2021/09/16 05:40:53;;;;;;;;;;;24.80;54.90;;;;;;1622214;71;1143;-68
2021/09/16 05:42:55;;;;;;;;;;;24.70;55.00;;;;;;1633526;72;726;-71
2021/09/16 05:44:57;;;;;;;;;;;24.70;55.00;;;;;;1632678;72;719;-68
2021/09/16 05:46:59;;;;;;;;;;;24.70;55.00;;;;;;1634920;72;963;-70
2021/09/16 05:49:01;;;;;;;;;;;24.70;55.00;;;;;;1636887;71;834;-66
2021/09/16 05:51:03;;;;;;;;;;;24.60;54.60;;;;;;1626160;72;1194;-68
2021/09/16 05:53:05;;;;;;;;;;;24.60;54.50;;;;;;1633091;72;698;-68
2021/09/16 05:55:09;;;;;;;;;;;24.60;54.50;;;;;;1644508;71;1954;-72
2021/09/16 05:57:10;;;;;;;;;;;24.60;54.60;;;;;;1640797;72;2058;-70
2021/09/16 05:59:12;;;;;;;;;;;24.70;54.70;;;;;;1632422;72;811;-72
2021/09/16 06:01:14;;;;;;;;;;;24.60;54.70;;;;;;1635274;71;1161;-68
2021/09/16 06:03:16;;;;;;;;;;;24.60;54.70;;;;;;1638306;72;765;-68
2021/09/16 06:05:18;;;;;;;;;;;24.60;54.80;;;;;;1644261;71;793;-69
2021/09/16 06:07:20;;;;;;;;;;;24.50;54.70;;;;;;1642074;72;751;-67
2021/09/16 06:09:22;;;;;;;;;;;24.60;54.70;;;;;;1622235;72;622;-68
2021/09/16 06:11:25;;;;;;;;;;;24.60;54.80;;;;;;1633370;71;1135;-69
2021/09/16 06:13:27;;;;;;;;;;;24.60;54.70;;;;;;1641269;71;752;-68
2021/09/16 06:15:29;;;;;;;;;;;24.50;54.90;;;;;;1634221;71;1954;-72
2021/09/16 06:17:31;;;;;;;;;;;24.60;54.90;;;;;;1636755;71;791;-73
2021/09/16 06:19:32;;;;;;;;;;;24.60;54.90;;;;;;1622488;72;691;-66
2021/09/16 06:21:34;;;;;;;;;;;24.60;55.00;;;;;;1639167;70;1138;-70
2021/09/16 06:23:36;;;;;;;;;;;24.60;55.00;;;;;;1645025;71;775;-71
2021/09/16 06:25:38;;;;;;;;;;;24.60;54.90;;;;;;1636532;71;739;-70
2021/09/16 06:27:40;;;;;;;;;;;24.60;54.90;;;;;;1639084;71;716;-69
2021/09/16 06:29:42;;;;;;;;;;;24.50;55.00;;;;;;1644851;71;773;-69
2021/09/16 06:31:44;;;;;;;;;;;24.50;54.90;;;;;;1637942;71;1133;-69
2021/09/16 06:33:46;;;;;;;;;;;24.50;54.90;;;;;;1639675;71;1934;-70
2021/09/16 06:35:48;;;;;;;;;;;24.50;54.90;;;;;;1639997;71;654;-70
2021/09/16 06:37:50;;;;;;;;;;;24.60;54.80;;;;;;1644981;71;740;-69
2021/09/16 06:39:51;;;;;;;;;;;24.60;54.90;;;;;;1638695;72;756;-70
2021/09/16 06:41:53;;;;;;;;;;;24.50;54.90;;;;;;1643964;71;1140;-70
2021/09/16 06:43:55;;;;;;;;;;;24.50;55.00;;;;;;1637773;71;752;-73
2021/09/16 06:45:57;;;;;;;;;;;24.50;55.10;;;;;;1633626;71;738;-69
2021/09/16 06:47:59;;;;;;;;;;;24.40;55.00;;;;;;1635111;72;755;-69
2021/09/16 06:50:01;;;;;;;;;;;24.50;55.10;;;;;;1640907;71;757;-70
2021/09/16 06:52:03;;;;;;;;;;;24.50;55.10;;;;;;1634870;71;1148;-69
2021/09/16 06:54:05;;;;;;;;;;;24.50;55.20;;;;;;1635639;71;1923;-70
2021/09/16 06:56:07;;;;;;;;;;;24.50;55.20;;;;;;1627933;72;678;-72
2021/09/16 06:58:09;;;;;;;;;;;24.40;55.20;;;;;;1645778;71;646;-70
2021/09/16 07:00:11;;;;;;;;;;;24.50;55.20;;;;;;1645553;71;689;-70
2021/09/16 07:02:13;;;;;;;;;;;24.50;55.30;;;;;;1643114;71;1175;-70
2021/09/16 07:04:15;;;;;;;;;;;24.50;55.40;;;;;;1643455;71;674;-72
2021/09/16 07:06:17;;;;;;;;;;;24.40;55.50;;;;;;1640427;71;694;-72
2021/09/16 07:08:18;;;;;;;;;;;24.40;55.50;;;;;;1646368;71;882;-69
2021/09/16 07:10:20;;;;;;;;;;;24.50;55.70;;;;;;1641699;71;768;-70
2021/09/16 07:12:22;;;;;;;;;;;24.40;55.60;;;;;;1639724;70;1098;-69
2021/09/16 07:14:26;;;;;;;;;;;24.40;55.70;;;;;;1643202;71;1950;-69
2021/09/16 07:16:28;;;;;;;;;;;24.40;55.70;;;;;;1641498;71;708;-69
2021/09/16 07:18:34;;;;;;;;;;;24.40;55.90;;;;;;1641437;71;722;-69
2021/09/16 07:20:33;;;;;;;;;;;24.40;55.80;;;;;;1630425;72;1829;-69
2021/09/16 07:22:35;;;;;;;;;;;24.40;55.90;;;;;;1626150;72;1126;-69
2021/09/16 07:24:37;;;;;;;;;;;24.30;55.90;;;;;;1632457;72;787;-69
2021/09/16 07:26:39;;;;;;;;;;;24.30;56.00;;;;;;1642245;72;788;-69
2021/09/16 07:28:41;;;;;;;;;;;24.40;56.00;;;;;;1637192;71;778;-69
2021/09/16 07:30:43;;;;;;;;;;;24.30;56.10;;;;;;1636761;71;1156;-69
2021/09/16 07:32:44;;;;;;;;;;;24.30;56.10;;;;;;1639637;71;741;-71
2021/09/16 07:34:46;;;;;;;;;;;24.30;56.10;;;;;;1637243;72;1935;-69
2021/09/16 07:36:48;;;;;;;;;;;24.40;56.20;;;;;;1639975;71;666;-69
2021/09/16 07:38:50;;;;;;;;;;;24.30;56.30;;;;;;1632779;71;782;-69
2021/09/16 07:40:52;;;;;;;;;;;24.30;56.30;;;;;;1641533;72;1134;-69
2021/09/16 07:42:54;;;;;;;;;;;24.30;56.30;;;;;;1629158;72;786;-69
2021/09/16 07:44:56;;;;;;;;;;;24.30;56.40;;;;;;1637129;72;677;-68
2021/09/16 07:46:58;;;;;;;;;;;24.30;56.40;;;;;;1639195;71;761;-70
2021/09/16 07:48:59;;;;;;;;;;;24.30;56.50;;;;;;1640092;72;889;-72
2021/09/16 07:51:01;;;;;;;;;;;24.30;56.60;;;;;;1641539;71;1136;-69
2021/09/16 07:53:03;;;;;;;;;;;24.30;56.70;;;;;;1638541;71;949;-69
2021/09/16 07:55:06;;;;;;;;;;;24.30;56.70;;;;;;1642832;72;1908;-69
2021/09/16 07:57:07;;;;;;;;;;;24.30;56.80;;;;;;1636562;72;884;-68
2021/09/16 07:59:09;;;;;;;;;;;24.30;56.80;;;;;;1640835;72;782;-75
2021/09/16 08:01:11;;;;;;;;;;;24.30;56.90;;;;;;1638970;72;1070;-68
2021/09/16 08:03:13;;;;;;;;;;;24.30;56.90;;;;;;1637575;71;781;-70
2021/09/16 08:05:15;;;;;;;;;;;24.30;57.10;;;;;;1642408;71;678;-72
2021/09/16 08:07:17;;;;;;;;;;;24.20;56.80;;;;;;1636345;71;818;-71
2021/09/16 08:09:19;;;;;;;;;;;24.20;56.90;;;;;;1647652;71;799;-72
2021/09/16 08:11:21;;;;;;;;;;;24.20;56.90;;;;;;1642028;70;1115;-69
2021/09/16 08:13:23;;;;;;;;;;;24.30;57.20;;;;;;1639245;71;735;-71
2021/09/16 08:15:24;;;;;;;;;;;24.30;57.30;;;;;;1637429;71;1911;-67
2021/09/16 08:17:26;;;;;;;;;;;24.20;57.00;;;;;;1637690;72;707;-69
2021/09/16 08:19:30;;;;;;;;;;;24.20;57.00;;;;;;1641947;72;676;-68
2021/09/16 08:21:32;;;;;;;;;;;24.20;57.00;;;;;;1624932;71;1670;-71
2021/09/16 08:23:34;;;;;;;;;;;24.20;57.10;;;;;;1634877;71;773;-72
2021/09/16 08:25:36;;;;;;;;;;;24.20;57.10;;;;;;1633692;71;824;-69
2021/09/16 08:27:38;;;;;;;;;;;24.20;57.10;;;;;;1651045;71;802;-70
2021/09/16 08:29:39;;;;;;;;;;;24.20;57.10;;;;;;1650966;71;730;-70
2021/09/16 08:31:43;;;;;;;;;;;24.20;57.20;;;;;;1640762;71;1196;-68
2021/09/16 08:33:45;;;;;;;;;;;24.20;57.20;;;;;;1638691;71;676;-70
2021/09/16 08:35:47;;;;;;;;;;;24.20;57.30;;;;;;1633890;72;1931;-70
2021/09/16 08:37:49;;;;;;;;;;;24.20;57.20;;;;;;1633897;72;723;-70
2021/09/16 08:39:51;;;;;;;;;;;24.20;57.30;;;;;;1632539;72;761;-72
2021/09/16 08:41:53;;;;;;;;;;;24.20;57.30;;;;;;1633461;71;1069;-67
2021/09/16 08:43:55;;;;;;;;;;;24.20;57.40;;;;;;1628137;72;759;-69
2021/09/16 08:45:57;;;;;;;;;;;24.20;57.60;;;;;;1634777;72;764;-72
2021/09/16 08:47:59;;;;;;;;;;;24.20;57.60;;;;;;1631217;72;706;-71
2021/09/16 08:50:01;;;;;;;;;;;24.20;57.90;;;;;;1633203;72;711;-72
2021/09/16 08:52:03;;;;;;;;;;;24.20;58.00;;;;;;1640185;70;1100;-69
2021/09/16 08:54:05;;;;;;;;;;;24.20;58.20;;;;;;1629140;71;823;-69
2021/09/16 08:56:07;;;;;;;;;;;24.20;58.10;;;;;;1640409;71;1948;-68
2021/09/16 08:58:09;;;;;;;;;;;24.30;58.10;;;;;;1631585;72;805;-68
2021/09/16 09:00:13;;;;;;;;;;;24.20;58.10;;;;;;1642207;71;768;-69
2021/09/16 09:02:15;;;;;;;;;;;24.20;58.20;;;;;;1641497;70;1770;-74
2021/09/16 09:04:17;;;;;;;;;;;24.20;58.20;;;;;;1632187;72;782;-70
2021/09/16 09:06:34;;;;;;;;;;;24.20;58.20;;;;;;1628186;72;630;-70
2021/09/16 09:08:35;;;;;;;;;;;24.20;58.30;;;;;;1637428;72;1806;-72
2021/09/16 09:10:41;;;;;;;;;;;24.20;58.20;;;;;;1645126;70;1107;-69
2021/09/16 09:12:43;;;;;;;;;;;24.30;58.50;;;;;;1643519;72;680;-71
2021/09/16 09:14:46;;;;;;;;;;;24.30;58.50;;;;;;1637664;72;1931;-71
2021/09/16 09:16:48;;;;;;;;;;;24.20;58.40;;;;;;1631297;71;741;-69
2021/09/16 09:18:51;;;;;;;;;;;24.20;58.50;;;;;;1640280;72;824;-68
2021/09/16 09:21:04;;;;;;;;;;;24.20;58.40;;;;;;1646701;70;1118;-72
2021/09/16 09:23:07;;;;;;;;;;;24.30;58.60;;;;;;1638202;72;699;-70
2021/09/16 09:25:10;;;;;;;;;;;24.20;58.60;;;;;;1635940;71;1892;-69
2021/09/16 09:27:23;;;;;;;;;;;24.20;58.70;;;;;;1634949;72;804;-69
2021/09/16 09:29:25;;;;;;;;;;;24.20;58.70;;;;;;1632555;72;806;-69
2021/09/16 09:31:26;;;;;;;;;;;24.20;59.20;;;;;;1632845;71;1144;-69
2021/09/16 09:33:32;;;;;;;;;;;24.30;59.20;;;;;;1637660;71;702;-72
2021/09/16 09:35:38;;;;;;;;;;;24.30;59.20;;;;;;1628834;72;1909;-70
2021/09/16 09:37:40;;;;;;;;;;;24.30;59.60;;;;;;1637019;72;773;-69
2021/09/16 09:39:42;;;;;;;;;;;24.40;59.40;;;;;;1640974;72;725;-69
2021/09/16 09:41:44;;;;;;;;;;;24.30;59.30;;;;;;1636348;71;1102;-70
2021/09/16 09:43:46;;;;;;;;;;;24.30;59.30;;;;;;1634418;72;727;-70
2021/09/16 09:46:05;;;;;;;;;;;24.30;59.80;;;;;;1631201;72;724;-75
2021/09/16 09:48:08;;;;;;;;;;;24.30;60.10;;;;;;1638493;72;795;-69
2021/09/16 09:50:17;;;;;;;;;;;24.30;60.30;;;;;;1634395;72;1641;-69
2021/09/16 09:52:21;;;;;;;;;;;24.30;59.80;;;;;;1630951;71;1167;-73
2021/09/16 09:54:31;;;;;;;;;;;24.30;59.80;;;;;;1635248;72;1734;-73
2021/09/16 09:56:33;;;;;;;;;;;24.20;60.10;;;;;;1629370;72;1915;-70
2021/09/16 09:58:35;;;;;;;;;;;24.20;60.60;;;;;;1634048;72;820;-70
2021/09/16 10:00:37;;;;;;;;;;;24.30;60.30;;;;;;1634254;72;714;-69
2021/09/16 10:02:50;;;;;;;;;;;24.30;60.10;;;;;;1636931;72;729;-71
2021/09/16 10:04:50;;;;;;;;;;;24.30;60.10;;;;;;1615334;72;1517;-69
2021/09/16 10:06:52;;;;;;;;;;;24.30;60.10;;;;;;1632191;72;781;-67
2021/09/16 10:09:08;;;;;;;;;;;24.30;60.10;;;;;;1634489;72;727;-69
2021/09/16 10:11:09;;;;;;;;;;;24.30;60.20;;;;;;1632888;71;1143;-67
2021/09/16 10:13:17;;;;;;;;;;;24.30;60.20;;;;;;1632251;72;658;-70
2021/09/16 10:15:16;;;;;;;;;;;24.30;60.30;;;;;;1631439;72;1931;-76
2021/09/16 10:17:18;;;;;;;;;;;24.30;60.40;;;;;;1633198;72;717;-69
2021/09/16 10:19:20;;;;;;;;;;;24.30;60.60;;;;;;1637934;72;767;-69
2021/09/16 10:21:22;;;;;;;;;;;24.40;60.50;;;;;;1634707;71;1074;-69
2021/09/16 10:23:24;;;;;;;;;;;24.30;60.60;;;;;;1633310;72;630;-68
2021/09/16 10:25:27;;;;;;;;;;;24.40;60.70;;;;;;1583347;73;769;-71
2021/09/16 10:27:33;;;;;;;;;;;24.30;60.70;;;;;;1602056;73;789;-72
2021/09/16 10:29:36;;;;;;;;;;;24.40;60.70;;;;;;1568458;74;848;-72
2021/09/16 10:31:38;;;;;;;;;;;24.40;61.10;;;;;;1569114;74;1152;-75
2021/09/16 10:33:40;;;;;;;;;;;24.30;61.20;;;;;;1601965;73;738;-71
2021/09/16 10:35:45;;;;;;;;;;;24.40;60.80;;;;;;1585528;74;1957;-71
2021/09/16 10:37:47;;;;;;;;;;;24.50;61.30;;;;;;1585282;74;809;-69
2021/09/16 10:39:49;;;;;;;;;;;24.30;61.10;;;;;;1581657;75;893;-69
2021/09/16 10:41:51;;;;;;;;;;;24.40;60.90;;;;;;1585145;73;1154;-70
2021/09/16 10:43:55;;;;;;;;;;;24.30;60.90;;;;;;1597851;74;712;-70
2021/09/16 10:45:56;;;;;;;;;;;24.40;60.90;;;;;;1585981;75;1727;-69
2021/09/16 10:48:15;;;;;;;;;;;24.40;60.70;;;;;;1588119;75;782;-69
2021/09/16 10:50:20;;;;;;;;;;;24.30;60.70;;;;;;1586439;75;706;-71
2021/09/16 10:52:23;;;;;;;;;;;24.30;60.60;;;;;;1601758;72;1113;-69
2021/09/16 10:54:29;;;;;;;;;;;24.30;60.70;;;;;;1599975;73;780;-69
2021/09/16 10:56:32;;;;;;;;;;;24.30;60.70;;;;;;1595320;73;1930;-71
2021/09/16 10:58:34;;;;;;;;;;;24.30;60.60;;;;;;1601192;73;725;-71
2021/09/16 11:00:38;;;;;;;;;;;24.30;60.80;;;;;;1569436;74;968;-69
2021/09/16 11:02:47;;;;;;;;;;;24.30;60.70;;;;;;1605594;73;1766;-73
2021/09/16 11:04:59;;;;;;;;;;;24.30;60.70;;;;;;1605260;73;1563;-71
2021/09/16 11:07:01;;;;;;;;;;;24.30;60.70;;;;;;1607068;73;684;-71
2021/09/16 11:09:03;;;;;;;;;;;24.30;60.70;;;;;;1605759;74;627;-69
2021/09/16 11:11:05;;;;;;;;;;;24.30;60.90;;;;;;1604401;73;1122;-70
2021/09/16 11:13:25;;;;;;;;;;;24.50;62.10;;;;;;1607307;73;781;-70
2021/09/16 11:15:34;;;;;;;;;;;24.40;61.40;;;;;;1606544;73;1927;-70
2021/09/16 11:17:36;;;;;;;;;;;24.40;61.80;;;;;;1582190;75;727;-70
2021/09/16 11:19:47;;;;;;;;;;;24.30;61.80;;;;;;1601507;73;716;-72
2021/09/16 11:22:00;;;;;;;;;;;24.20;61.60;;;;;;1598647;72;1152;-70
2021/09/16 11:24:03;;;;;;;;;;;24.20;61.50;;;;;;1593522;73;1974;-69
2021/09/16 11:26:05;;;;;;;;;;;24.20;61.20;;;;;;1555294;75;1930;-75
2021/09/16 11:28:07;;;;;;;;;;;24.30;61.30;;;;;;1555501;74;771;-69
2021/09/16 11:30:14;;;;;;;;;;;24.30;61.10;;;;;;1573082;74;818;-70
2021/09/16 11:32:16;;;;;;;;;;;24.30;61.00;;;;;;1605050;73;1773;-71
2021/09/16 11:34:18;;;;;;;;;;;24.30;60.90;;;;;;1626799;73;743;-69
2021/09/16 11:36:20;;;;;;;;;;;24.30;61.30;;;;;;1619897;73;1910;-72
2021/09/16 11:38:22;;;;;;;;;;;24.30;61.30;;;;;;1586694;74;811;-69
2021/09/16 11:40:25;;;;;;;;;;;24.30;61.20;;;;;;1566854;76;717;-73
2021/09/16 11:42:28;;;;;;;;;;;24.40;61.00;;;;;;1581071;73;1116;-71
2021/09/16 11:44:29;;;;;;;;;;;24.40;61.20;;;;;;1582030;73;745;-71
2021/09/16 11:46:31;;;;;;;;;;;24.40;60.90;;;;;;1589476;73;819;-71
2021/09/16 11:48:33;;;;;;;;;;;24.30;61.10;;;;;;1578907;74;724;-70
2021/09/16 11:50:36;;;;;;;;;;;24.40;61.00;;;;;;1588338;73;843;-71
2021/09/16 11:52:39;;;;;;;;;;;24.40;61.00;;;;;;1593956;73;812;-70
2021/09/16 11:54:41;;;;;;;;;;;24.30;61.30;;;;;;1594932;74;775;-73
2021/09/16 11:56:43;;;;;;;;;;;24.40;62.10;;;;;;1592258;73;1925;-70
2021/09/16 11:58:45;;;;;;;;;;;24.40;61.60;;;;;;1583502;73;726;-74
2021/09/16 12:00:54;;;;;;;;;;;24.40;61.40;;;;;;1580335;74;1114;-70
2021/09/16 12:02:55;;;;;;;;;;;24.30;61.40;;;;;;1592704;73;713;-72
2021/09/16 12:04:57;;;;;;;;;;;24.30;61.10;;;;;;1590257;73;746;-70
2021/09/16 12:06:59;;;;;;;;;;;24.40;61.40;;;;;;1576436;74;693;-70
2021/09/16 12:09:02;;;;;;;;;;;24.40;61.10;;;;;;1600505;73;748;-70
2021/09/16 12:11:11;;;;;;;;;;;24.40;60.90;;;;;;1593363;73;1091;-70